createdAt,value
2018-08-20T01:00:27.498Z,0.00
2018-08-20T01:01:27.444Z,0.00
2018-08-20T01:02:27.477Z,0.00
2018-08-20T01:03:27.419Z,0.00
2018-08-20T01:04:27.421Z,0.00
2018-08-20T01:05:27.396Z,0.00
2018-08-20T01:06:27.385Z,0.00
2018-08-20T01:07:27.419Z,0.00
2018-08-20T01:08:27.367Z,0.00
2018-08-20T01:09:27.351Z,0.00
2018-08-20T01:10:27.351Z,0.00
2018-08-20T01:11:27.332Z,0.00
2018-08-20T01:12:27.374Z,0.00
2018-08-20T01:13:27.316Z,0.00
2018-08-20T01:14:27.297Z,0.00
2018-08-20T01:15:27.285Z,0.00
2018-08-20T01:16:27.274Z,0.00
2018-08-20T01:17:27.310Z,0.00
2018-08-20T01:18:27.252Z,0.00
2018-08-20T01:19:27.245Z,0.00
2018-08-20T01:20:27.231Z,0.00
2018-08-20T01:21:27.217Z,0.00
2018-08-20T01:22:27.252Z,0.00
2018-08-20T01:23:27.196Z,0.00
2018-08-20T01:24:27.186Z,0.00
2018-08-20T01:25:27.197Z,0.00
2018-08-20T01:26:27.167Z,0.00
2018-08-20T01:27:27.197Z,0.00
2018-08-20T01:28:27.143Z,0.00
2018-08-20T01:29:27.128Z,0.00
2018-08-20T01:30:27.118Z,0.00
2018-08-20T01:31:27.133Z,0.00
2018-08-20T01:32:27.140Z,0.00
2018-08-20T01:33:27.083Z,0.00
2018-08-20T01:34:27.074Z,0.00
2018-08-20T01:35:27.064Z,0.00
2018-08-20T01:36:27.049Z,0.00
2018-08-20T01:37:27.086Z,0.00
2018-08-20T01:38:27.030Z,0.00
2018-08-20T01:39:27.017Z,0.00
2018-08-20T01:40:27.006Z,0.00
2018-08-20T01:41:26.996Z,0.00
2018-08-20T01:42:27.030Z,0.00
2018-08-20T01:43:26.974Z,0.00
2018-08-20T01:44:26.969Z,0.00
2018-08-20T01:45:26.955Z,0.00
2018-08-20T01:46:26.939Z,0.00
2018-08-20T01:47:26.977Z,0.00
2018-08-20T01:48:26.919Z,0.00
2018-08-20T01:49:26.904Z,0.00
2018-08-20T01:50:26.895Z,0.00
2018-08-20T01:51:26.885Z,0.00
2018-08-20T01:52:26.918Z,0.00
2018-08-20T01:53:26.861Z,0.00
2018-08-20T01:54:26.848Z,0.00
2018-08-20T01:55:26.839Z,0.00
2018-08-20T01:56:26.831Z,0.00
2018-08-20T01:57:26.861Z,0.00
2018-08-20T01:58:26.808Z,0.00
2018-08-20T01:59:26.801Z,0.00
2018-08-20T02:00:26.782Z,0.00
2018-08-20T02:01:26.770Z,0.00
2018-08-20T02:02:26.804Z,0.00
2018-08-20T02:03:26.747Z,0.00
2018-08-20T02:04:26.744Z,0.00
2018-08-20T02:05:26.722Z,0.00
2018-08-20T02:06:26.717Z,0.00
2018-08-20T02:07:26.747Z,0.00
2018-08-20T02:08:26.688Z,0.00
2018-08-20T02:09:26.680Z,0.00
2018-08-20T02:10:26.670Z,0.00
2018-08-20T02:11:26.653Z,0.00
2018-08-20T02:12:26.696Z,0.00
2018-08-20T02:13:26.630Z,0.00
2018-08-20T02:14:26.619Z,0.00
2018-08-20T02:15:26.628Z,0.00
2018-08-20T02:16:26.597Z,0.00
2018-08-20T02:17:26.639Z,0.00
2018-08-20T02:18:26.575Z,0.00
2018-08-20T02:19:26.564Z,0.00
2018-08-20T02:20:26.553Z,0.00
2018-08-20T02:21:26.543Z,0.00
2018-08-20T02:22:26.577Z,0.00
2018-08-20T02:23:26.526Z,0.00
2018-08-20T02:24:26.512Z,0.00
2018-08-20T02:25:26.499Z,0.00
2018-08-20T02:26:26.498Z,0.00
2018-08-20T02:27:26.523Z,0.00
2018-08-20T02:28:26.467Z,0.00
2018-08-20T02:29:26.455Z,0.00
2018-08-20T02:30:26.442Z,0.00
2018-08-20T02:31:26.433Z,0.00
2018-08-20T02:32:26.466Z,0.00
2018-08-20T02:33:26.413Z,0.00
2018-08-20T02:34:26.408Z,0.00
2018-08-20T02:35:26.387Z,0.00
2018-08-20T02:36:26.381Z,0.00
2018-08-20T02:37:26.437Z,0.00
2018-08-20T02:38:26.355Z,0.00
2018-08-20T02:39:26.344Z,0.00
2018-08-20T02:40:26.333Z,0.00
2018-08-20T02:41:26.320Z,0.00
2018-08-20T02:42:26.312Z,0.00
2018-08-20T02:43:26.344Z,0.00
2018-08-20T02:44:26.286Z,0.00
2018-08-20T02:45:26.287Z,0.00
2018-08-20T02:46:26.265Z,0.00
2018-08-20T02:47:26.293Z,0.00
2018-08-20T02:48:26.299Z,0.00
2018-08-20T02:49:26.234Z,0.00
2018-08-20T02:50:26.245Z,0.00
2018-08-20T02:51:26.216Z,0.00
2018-08-20T02:52:26.199Z,0.00
2018-08-20T02:53:26.240Z,0.00
2018-08-20T02:54:26.178Z,0.00
2018-08-20T02:55:26.165Z,0.00
2018-08-20T02:56:26.160Z,0.00
2018-08-20T02:57:26.146Z,0.00
2018-08-20T02:58:26.176Z,0.00
2018-08-20T02:59:26.122Z,0.00
2018-08-20T03:00:26.107Z,0.00
2018-08-20T03:01:26.097Z,0.00
2018-08-20T03:02:26.091Z,0.00
2018-08-20T03:03:26.119Z,0.00
2018-08-20T03:04:26.068Z,0.00
2018-08-20T03:05:26.058Z,0.00
2018-08-20T03:06:26.041Z,0.00
2018-08-20T03:07:26.030Z,0.00
2018-08-20T03:08:26.063Z,0.00
2018-08-20T03:09:26.010Z,0.00
2018-08-20T03:10:25.995Z,0.00
2018-08-20T03:11:25.983Z,0.00
2018-08-20T03:12:25.974Z,0.00
2018-08-20T03:13:26.009Z,0.00
2018-08-20T03:14:25.950Z,0.00
2018-08-20T03:15:25.940Z,0.00
2018-08-20T03:16:26.002Z,0.00
2018-08-20T03:17:25.954Z,0.00
2018-08-20T03:18:25.954Z,0.00
2018-08-20T03:19:25.896Z,0.00
2018-08-20T03:20:25.887Z,0.00
2018-08-20T03:21:25.872Z,0.00
2018-08-20T03:22:25.861Z,0.00
2018-08-20T03:23:25.893Z,0.00
2018-08-20T03:24:25.838Z,0.00
2018-08-20T03:25:25.827Z,0.00
2018-08-20T03:26:25.813Z,0.00
2018-08-20T03:27:25.801Z,0.00
2018-08-20T03:28:25.844Z,0.00
2018-08-20T03:29:25.780Z,0.00
2018-08-20T03:30:25.768Z,0.00
2018-08-20T03:31:25.759Z,0.00
2018-08-20T03:32:25.753Z,0.00
2018-08-20T03:33:25.783Z,0.00
2018-08-20T03:34:25.727Z,0.00
2018-08-20T03:35:25.723Z,0.00
2018-08-20T03:36:25.704Z,0.00
2018-08-20T03:37:25.699Z,0.00
2018-08-20T03:38:25.722Z,0.00
2018-08-20T03:39:25.667Z,0.00
2018-08-20T03:40:25.655Z,0.00
2018-08-20T03:41:25.644Z,0.00
2018-08-20T03:42:25.659Z,0.00
2018-08-20T03:43:25.667Z,0.00
2018-08-20T03:44:25.610Z,0.00
2018-08-20T03:45:25.601Z,0.00
2018-08-20T03:46:25.592Z,0.00
2018-08-20T03:47:25.581Z,0.00
2018-08-20T03:48:25.609Z,0.00
2018-08-20T03:49:25.558Z,0.00
2018-08-20T03:50:25.550Z,0.00
2018-08-20T03:51:25.532Z,0.00
2018-08-20T03:52:25.519Z,0.00
2018-08-20T03:53:25.554Z,0.00
2018-08-20T03:54:25.501Z,0.00
2018-08-20T03:55:25.489Z,0.00
2018-08-20T03:56:25.475Z,0.00
2018-08-20T03:57:25.465Z,0.00
2018-08-20T03:58:25.496Z,4.00
2018-08-20T03:59:25.476Z,4.00
2018-08-20T04:00:25.430Z,0.00
2018-08-20T04:01:25.417Z,0.00
2018-08-20T04:02:25.406Z,4.00
2018-08-20T04:03:25.440Z,0.00
2018-08-20T04:04:25.404Z,4.00
2018-08-20T04:05:25.388Z,4.00
2018-08-20T04:06:25.364Z,4.00
2018-08-20T04:07:25.349Z,8.00
2018-08-20T04:08:25.391Z,8.00
2018-08-20T04:09:25.341Z,8.00
2018-08-20T04:10:25.317Z,8.00
2018-08-20T04:11:25.307Z,8.00
2018-08-20T04:12:25.292Z,8.00
2018-08-20T04:13:25.332Z,12.00
2018-08-20T04:14:25.279Z,16.00
2018-08-20T04:15:25.263Z,16.00
2018-08-20T04:16:25.251Z,20.00
2018-08-20T04:17:25.244Z,20.00
2018-08-20T04:18:25.270Z,24.00
2018-08-20T04:19:25.221Z,28.00
2018-08-20T04:20:25.211Z,28.00
2018-08-20T04:21:25.195Z,32.00
2018-08-20T04:22:25.210Z,36.00
2018-08-20T04:23:25.215Z,40.00
2018-08-20T04:24:25.160Z,40.00
2018-08-20T04:25:25.149Z,48.00
2018-08-20T04:26:25.139Z,48.00
2018-08-20T04:27:25.127Z,56.00
2018-08-20T04:28:25.156Z,60.00
2018-08-20T04:29:25.110Z,64.00
2018-08-20T04:30:25.091Z,72.00
2018-08-20T04:31:25.077Z,76.00
2018-08-20T04:32:25.078Z,80.00
2018-08-20T04:33:25.108Z,84.00
2018-08-20T04:34:25.045Z,92.00
2018-08-20T04:35:25.040Z,100.00
2018-08-20T04:36:25.052Z,104.00
2018-08-20T04:37:25.011Z,112.00
2018-08-20T04:38:25.043Z,116.00
2018-08-20T04:39:24.989Z,124.00
2018-08-20T04:40:24.976Z,128.00
2018-08-20T04:41:24.967Z,136.00
2018-08-20T04:42:24.957Z,144.00
2018-08-20T04:43:25.003Z,148.00
2018-08-20T04:44:24.933Z,156.00
2018-08-20T04:45:24.933Z,164.00
2018-08-20T04:46:24.911Z,172.00
2018-08-20T04:47:24.900Z,180.00
2018-08-20T04:48:24.885Z,188.00
2018-08-20T04:49:24.925Z,192.00
2018-08-20T04:50:24.942Z,200.00
2018-08-20T04:51:24.882Z,212.00
2018-08-20T04:52:24.847Z,216.00
2018-08-20T04:53:24.832Z,224.00
2018-08-20T04:54:24.892Z,232.00
2018-08-20T04:55:24.812Z,240.00
2018-08-20T04:56:24.796Z,252.00
2018-08-20T04:57:24.784Z,256.00
2018-08-20T04:58:24.775Z,264.00
2018-08-20T04:59:24.809Z,272.00
2018-08-20T05:00:24.754Z,284.00
2018-08-20T05:01:24.742Z,292.00
2018-08-20T05:02:24.728Z,300.00
2018-08-20T05:03:24.722Z,312.00
2018-08-20T05:04:24.754Z,320.00
2018-08-20T05:05:24.696Z,332.00
2018-08-20T05:06:24.690Z,340.00
2018-08-20T05:07:24.671Z,352.00
2018-08-20T05:08:24.662Z,364.00
2018-08-20T05:09:24.695Z,368.00
2018-08-20T05:10:24.638Z,380.00
2018-08-20T05:11:24.630Z,388.00
2018-08-20T05:12:24.617Z,396.00
2018-08-20T05:13:24.606Z,408.00
2018-08-20T05:14:24.640Z,424.00
2018-08-20T05:15:24.580Z,432.00
2018-08-20T05:16:24.568Z,440.00
2018-08-20T05:17:24.557Z,456.00
2018-08-20T05:18:24.550Z,464.00
2018-08-20T05:19:24.537Z,476.00
2018-08-20T05:20:24.569Z,488.00
2018-08-20T05:21:24.513Z,496.00
2018-08-20T05:22:24.504Z,508.00
2018-08-20T05:23:24.489Z,520.00
2018-08-20T05:24:24.480Z,532.00
2018-08-20T05:25:24.524Z,540.00
2018-08-20T05:26:24.459Z,552.00
2018-08-20T05:27:24.445Z,564.00
2018-08-20T05:28:24.432Z,580.00
2018-08-20T05:29:24.493Z,592.00
2018-08-20T05:30:24.467Z,604.00
2018-08-20T05:31:24.402Z,612.00
2018-08-20T05:32:24.391Z,620.00
2018-08-20T05:33:24.382Z,628.00
2018-08-20T05:34:24.367Z,632.00
2018-08-20T05:35:24.401Z,640.00
2018-08-20T05:36:24.346Z,644.00
2018-08-20T05:37:24.336Z,652.00
2018-08-20T05:38:24.325Z,652.00
2018-08-20T05:39:24.330Z,656.00
2018-08-20T05:40:24.343Z,664.00
2018-08-20T05:41:24.302Z,664.00
2018-08-20T05:42:24.278Z,660.00
2018-08-20T05:43:24.266Z,664.00
2018-08-20T05:44:24.253Z,672.00
2018-08-20T05:45:24.289Z,668.00
2018-08-20T05:46:24.230Z,676.00
2018-08-20T05:47:24.240Z,680.00
2018-08-20T05:48:24.230Z,692.00
2018-08-20T05:49:24.196Z,704.00
2018-08-20T05:50:24.233Z,708.00
2018-08-20T05:51:24.180Z,720.00
2018-08-20T05:52:24.175Z,736.00
2018-08-20T05:53:24.150Z,744.00
2018-08-20T05:54:24.154Z,760.00
2018-08-20T05:55:24.173Z,784.00
2018-08-20T05:56:24.117Z,820.00
2018-08-20T05:57:24.114Z,856.00
2018-08-20T05:58:24.094Z,896.00
2018-08-20T05:59:24.082Z,964.00
2018-08-20T06:00:24.122Z,1040.00
2018-08-20T06:01:24.060Z,1168.00
2018-08-20T06:02:24.049Z,1396.00
2018-08-20T06:03:24.049Z,1516.00
2018-08-20T06:04:24.026Z,1564.00
2018-08-20T06:05:24.060Z,1656.00
2018-08-20T06:06:24.004Z,1800.00
2018-08-20T06:07:23.992Z,2040.00
2018-08-20T06:08:23.988Z,2272.00
2018-08-20T06:09:23.970Z,2372.00
2018-08-20T06:10:24.004Z,2464.00
2018-08-20T06:11:25.196Z,2468.00
2018-08-20T06:12:25.003Z,2356.00
2018-08-20T06:13:24.896Z,2016.00
2018-08-20T06:14:23.940Z,1716.00
2018-08-20T06:15:24.090Z,1648.00
2018-08-20T06:16:23.893Z,1524.00
2018-08-20T06:17:23.881Z,1508.00
2018-08-20T06:18:23.870Z,1784.00
2018-08-20T06:19:23.861Z,2168.00
2018-08-20T06:20:23.850Z,2076.00
2018-08-20T06:21:23.893Z,1664.00
2018-08-20T06:22:23.859Z,1420.00
2018-08-20T06:23:23.813Z,1520.00
2018-08-20T06:24:23.804Z,1944.00
2018-08-20T06:25:23.794Z,2436.00
2018-08-20T06:26:23.828Z,3176.00
2018-08-20T06:27:23.770Z,3648.00
2018-08-20T06:28:23.758Z,3752.00
2018-08-20T06:29:23.774Z,3728.00
2018-08-20T06:30:23.736Z,3604.00
2018-08-20T06:31:23.787Z,3356.00
2018-08-20T06:32:23.711Z,2608.00
2018-08-20T06:33:23.700Z,2184.00
2018-08-20T06:34:23.714Z,1908.00
2018-08-20T06:35:23.685Z,1744.00
2018-08-20T06:36:23.716Z,1820.00
2018-08-20T06:37:23.655Z,1916.00
2018-08-20T06:38:23.708Z,2364.00
2018-08-20T06:39:23.632Z,2892.00
2018-08-20T06:40:23.627Z,2844.00
2018-08-20T06:41:23.660Z,2312.00
2018-08-20T06:42:23.599Z,1784.00
2018-08-20T06:43:23.593Z,1500.00
2018-08-20T06:44:23.575Z,1432.00
2018-08-20T06:45:23.569Z,1452.00
2018-08-20T06:46:23.602Z,1516.00
2018-08-20T06:47:23.587Z,1628.00
2018-08-20T06:48:23.534Z,1744.00
2018-08-20T06:49:23.549Z,1848.00
2018-08-20T06:50:23.512Z,1992.00
2018-08-20T06:51:23.544Z,2524.00
2018-08-20T06:52:23.493Z,4052.00
2018-08-20T06:53:23.476Z,4956.00
2018-08-20T06:54:23.476Z,4592.00
2018-08-20T06:55:23.455Z,3680.00
2018-08-20T06:56:23.505Z,2660.00
2018-08-20T06:57:23.435Z,2116.00
2018-08-20T06:58:23.418Z,2048.00
2018-08-20T06:59:23.408Z,1944.00
2018-08-20T07:00:23.397Z,2564.00
2018-08-20T07:01:23.433Z,4116.00
2018-08-20T07:02:23.375Z,4728.00
2018-08-20T07:03:23.382Z,3688.00
2018-08-20T07:04:23.354Z,3116.00
2018-08-20T07:05:23.342Z,2692.00
2018-08-20T07:06:23.389Z,2068.00
2018-08-20T07:07:23.318Z,1888.00
2018-08-20T07:08:23.310Z,1580.00
2018-08-20T07:09:23.297Z,1640.00
2018-08-20T07:10:23.287Z,1564.00
2018-08-20T07:11:23.319Z,1328.00
2018-08-20T07:12:23.263Z,1304.00
2018-08-20T07:13:23.251Z,1328.00
2018-08-20T07:14:23.264Z,1424.00
2018-08-20T07:15:23.230Z,1420.00
2018-08-20T07:16:23.262Z,1528.00
2018-08-20T07:17:23.239Z,1500.00
2018-08-20T07:18:23.196Z,1360.00
2018-08-20T07:19:23.184Z,1340.00
2018-08-20T07:20:23.177Z,1532.00
2018-08-20T07:21:23.214Z,1560.00
2018-08-20T07:22:23.151Z,1516.00
2018-08-20T07:23:23.195Z,1516.00
2018-08-20T07:24:23.128Z,1512.00
2018-08-20T07:25:23.120Z,1344.00
2018-08-20T07:26:23.151Z,1344.00
2018-08-20T07:27:23.093Z,1360.00
2018-08-20T07:28:23.082Z,1400.00
2018-08-20T07:29:23.081Z,1564.00
2018-08-20T07:30:23.063Z,1852.00
2018-08-20T07:31:23.094Z,2824.00
2018-08-20T07:32:23.040Z,3832.00
2018-08-20T07:33:23.032Z,4124.00
2018-08-20T07:34:23.014Z,2876.00
2018-08-20T07:35:23.007Z,1584.00
2018-08-20T07:36:23.040Z,1444.00
2018-08-20T07:37:22.992Z,1416.00
2018-08-20T07:38:22.978Z,1448.00
2018-08-20T07:39:22.963Z,1468.00
2018-08-20T07:40:22.954Z,1420.00
2018-08-20T07:41:22.989Z,1476.00
2018-08-20T07:42:22.960Z,1464.00
2018-08-20T07:43:22.939Z,1452.00
2018-08-20T07:44:22.912Z,1464.00
2018-08-20T07:45:22.895Z,1472.00
2018-08-20T07:46:22.931Z,1480.00
2018-08-20T07:47:22.872Z,1544.00
2018-08-20T07:48:22.904Z,1536.00
2018-08-20T07:49:22.852Z,1548.00
2018-08-20T07:50:22.838Z,1576.00
2018-08-20T07:51:22.874Z,1604.00
2018-08-20T07:52:22.817Z,1552.00
2018-08-20T07:53:22.805Z,1568.00
2018-08-20T07:54:22.794Z,1600.00
2018-08-20T07:55:22.784Z,1664.00
2018-08-20T07:56:22.821Z,1680.00
2018-08-20T07:57:22.769Z,1712.00
2018-08-20T07:58:22.751Z,1752.00
2018-08-20T07:59:22.738Z,1800.00
2018-08-20T08:00:22.732Z,1844.00
2018-08-20T08:01:22.763Z,1804.00
2018-08-20T08:02:22.707Z,1732.00
2018-08-20T08:03:22.696Z,1736.00
2018-08-20T08:04:22.710Z,1736.00
2018-08-20T08:05:22.676Z,1788.00
2018-08-20T08:06:22.709Z,1808.00
2018-08-20T08:07:22.651Z,1848.00
2018-08-20T08:08:22.639Z,1840.00
2018-08-20T08:09:22.631Z,1860.00
2018-08-20T08:10:22.617Z,1868.00
2018-08-20T08:11:22.670Z,1908.00
2018-08-20T08:12:22.598Z,1960.00
2018-08-20T08:13:22.584Z,2004.00
2018-08-20T08:14:22.584Z,1956.00
2018-08-20T08:15:22.563Z,1928.00
2018-08-20T08:16:22.559Z,2048.00
2018-08-20T08:17:22.583Z,2316.00
2018-08-20T08:18:22.529Z,2504.00
2018-08-20T08:19:22.520Z,2148.00
2018-08-20T08:20:22.510Z,2280.00
2018-08-20T08:21:22.504Z,3240.00
2018-08-20T08:22:22.534Z,3236.00
2018-08-20T08:23:22.476Z,3296.00
2018-08-20T08:24:22.471Z,3412.00
2018-08-20T08:25:22.452Z,3800.00
2018-08-20T08:26:22.460Z,4092.00
2018-08-20T08:27:22.482Z,3640.00
2018-08-20T08:28:22.446Z,3308.00
2018-08-20T08:29:22.409Z,3000.00
2018-08-20T08:30:22.412Z,2568.00
2018-08-20T08:31:22.398Z,2068.00
2018-08-20T08:32:22.440Z,1852.00
2018-08-20T08:33:22.362Z,1852.00
2018-08-20T08:34:22.350Z,2008.00
2018-08-20T08:35:22.341Z,1996.00
2018-08-20T08:36:22.334Z,1896.00
2018-08-20T08:37:22.377Z,1920.00
2018-08-20T08:38:22.306Z,2608.00
2018-08-20T08:39:22.295Z,2232.00
2018-08-20T08:40:22.282Z,2544.00
2018-08-20T08:41:22.272Z,1928.00
2018-08-20T08:42:22.306Z,1848.00
2018-08-20T08:43:22.249Z,2008.00
2018-08-20T08:44:22.242Z,3020.00
2018-08-20T08:45:22.227Z,2928.00
2018-08-20T08:46:22.218Z,2684.00
2018-08-20T08:47:22.250Z,2408.00
2018-08-20T08:48:22.193Z,2312.00
2018-08-20T08:49:22.184Z,2360.00
2018-08-20T08:50:22.173Z,2460.00
2018-08-20T08:51:22.159Z,2228.00
2018-08-20T08:52:22.197Z,2380.00
2018-08-20T08:53:22.145Z,2472.00
2018-08-20T08:54:22.130Z,2552.00
2018-08-20T08:55:22.115Z,2892.00
2018-08-20T08:56:22.105Z,3468.00
2018-08-20T08:57:22.137Z,3348.00
2018-08-20T08:58:22.082Z,3308.00
2018-08-20T08:59:22.068Z,3196.00
2018-08-20T09:00:22.091Z,3104.00
2018-08-20T09:01:22.045Z,2872.00
2018-08-20T09:02:22.082Z,2736.00
2018-08-20T09:03:22.025Z,3236.00
2018-08-20T09:04:22.014Z,4140.00
2018-08-20T09:05:22.000Z,6612.00
2018-08-20T09:06:21.990Z,5408.00
2018-08-20T09:07:22.026Z,4868.00
2018-08-20T09:08:21.977Z,5864.00
2018-08-20T09:09:21.957Z,3720.00
2018-08-20T09:10:21.949Z,3112.00
2018-08-20T09:11:21.934Z,3128.00
2018-08-20T09:12:21.969Z,4940.00
2018-08-20T09:13:21.914Z,7292.00
2018-08-20T09:14:21.901Z,5752.00
2018-08-20T09:15:21.925Z,5192.00
2018-08-20T09:16:21.889Z,3068.00
2018-08-20T09:17:21.975Z,2556.00
2018-08-20T09:18:21.857Z,2484.00
2018-08-20T09:19:21.851Z,2588.00
2018-08-20T09:20:21.833Z,2756.00
2018-08-20T09:21:21.827Z,2956.00
2018-08-20T09:22:21.855Z,3064.00
2018-08-20T09:23:21.801Z,3352.00
2018-08-20T09:24:21.788Z,3408.00
2018-08-20T09:25:21.777Z,3636.00
2018-08-20T09:26:21.769Z,3300.00
2018-08-20T09:27:21.804Z,3104.00
2018-08-20T09:28:21.747Z,3080.00
2018-08-20T09:29:21.736Z,3108.00
2018-08-20T09:30:21.721Z,3652.00
2018-08-20T09:31:21.712Z,4652.00
2018-08-20T09:32:21.813Z,6228.00
2018-08-20T09:33:21.691Z,8572.00
2018-08-20T09:34:21.678Z,17312.00
2018-08-20T09:35:21.670Z,30720.00
2018-08-20T09:36:21.656Z,22528.00
2018-08-20T09:37:21.702Z,28384.00
2018-08-20T09:38:21.715Z,18016.00
2018-08-20T09:39:21.624Z,4400.00
2018-08-20T09:40:21.612Z,3112.00
2018-08-20T09:41:21.606Z,4224.00
2018-08-20T09:42:21.634Z,6476.00
2018-08-20T09:43:21.580Z,6616.00
2018-08-20T09:44:21.569Z,4188.00
2018-08-20T09:45:21.556Z,3552.00
2018-08-20T09:46:21.547Z,3416.00
2018-08-20T09:47:21.580Z,3432.00
2018-08-20T09:48:21.524Z,3588.00
2018-08-20T09:49:21.521Z,3464.00
2018-08-20T09:50:21.502Z,4408.00
2018-08-20T09:51:21.490Z,4276.00
2018-08-20T09:52:21.537Z,3916.00
2018-08-20T09:53:21.531Z,3740.00
2018-08-20T09:54:21.460Z,3804.00
2018-08-20T09:55:21.449Z,4204.00
2018-08-20T09:56:21.438Z,4892.00
2018-08-20T09:57:21.470Z,4972.00
2018-08-20T09:58:21.413Z,5036.00
2018-08-20T09:59:21.403Z,5928.00
2018-08-20T10:00:21.390Z,5928.00
2018-08-20T10:01:21.386Z,5704.00
2018-08-20T10:02:21.417Z,5960.00
2018-08-20T10:03:21.357Z,5688.00
2018-08-20T10:04:21.348Z,5276.00
2018-08-20T10:05:21.335Z,4396.00
2018-08-20T10:06:21.325Z,4260.00
2018-08-20T10:07:21.402Z,6184.00
2018-08-20T10:08:21.308Z,6324.00
2018-08-20T10:09:21.290Z,6432.00
2018-08-20T10:10:21.286Z,6360.00
2018-08-20T10:11:21.270Z,6304.00
2018-08-20T10:12:21.304Z,10916.00
2018-08-20T10:13:21.251Z,13332.00
2018-08-20T10:14:21.240Z,7148.00
2018-08-20T10:15:21.224Z,7004.00
2018-08-20T10:16:21.217Z,5364.00
2018-08-20T10:17:21.273Z,5620.00
2018-08-20T10:18:21.201Z,6444.00
2018-08-20T10:19:21.187Z,6524.00
2018-08-20T10:20:21.219Z,6104.00
2018-08-20T10:21:21.161Z,5768.00
2018-08-20T10:22:21.173Z,6460.00
2018-08-20T10:23:21.240Z,6724.00
2018-08-20T10:24:21.137Z,6900.00
2018-08-20T10:25:21.125Z,7340.00
2018-08-20T10:26:21.103Z,7692.00
2018-08-20T10:27:21.093Z,7240.00
2018-08-20T10:28:21.897Z,5960.00
2018-08-20T10:29:21.073Z,4836.00
2018-08-20T10:30:21.136Z,4328.00
2018-08-20T10:31:21.059Z,3952.00
2018-08-20T10:32:21.038Z,4004.00
2018-08-20T10:33:21.078Z,3968.00
2018-08-20T10:34:21.016Z,4020.00
2018-08-20T10:35:21.009Z,4060.00
2018-08-20T10:36:21.014Z,4360.00
2018-08-20T10:37:20.983Z,5304.00
2018-08-20T10:38:21.029Z,5192.00
2018-08-20T10:39:20.960Z,4784.00
2018-08-20T10:40:20.959Z,4580.00
2018-08-20T10:41:20.961Z,5020.00
2018-08-20T10:42:20.928Z,5296.00
2018-08-20T10:43:20.962Z,5532.00
2018-08-20T10:44:20.910Z,5360.00
2018-08-20T10:45:20.897Z,5136.00
2018-08-20T10:46:20.883Z,4616.00
2018-08-20T10:47:20.871Z,4676.00
2018-08-20T10:48:20.906Z,4712.00
2018-08-20T10:49:20.851Z,4208.00
2018-08-20T10:50:20.843Z,4040.00
2018-08-20T10:51:20.829Z,4392.00
2018-08-20T10:52:20.817Z,4992.00
2018-08-20T10:53:20.851Z,4940.00
2018-08-20T10:54:20.795Z,5152.00
2018-08-20T10:55:20.784Z,4824.00
2018-08-20T10:56:20.780Z,4492.00
2018-08-20T10:57:20.764Z,4124.00
2018-08-20T10:58:20.799Z,3676.00
2018-08-20T10:59:20.752Z,3564.00
2018-08-20T11:00:20.732Z,3448.00
2018-08-20T11:01:20.719Z,3404.00
2018-08-20T11:02:20.708Z,3844.00
2018-08-20T11:03:21.225Z,4596.00
2018-08-20T11:04:20.687Z,5640.00
2018-08-20T11:05:20.674Z,6280.00
2018-08-20T11:06:20.665Z,6804.00
2018-08-20T11:07:20.650Z,6484.00
2018-08-20T11:08:20.686Z,5740.00
2018-08-20T11:09:20.632Z,5160.00
2018-08-20T11:10:20.618Z,5244.00
2018-08-20T11:11:20.607Z,5000.00
2018-08-20T11:12:20.601Z,4696.00
2018-08-20T11:13:20.630Z,4404.00
2018-08-20T11:14:20.576Z,4040.00
2018-08-20T11:15:20.564Z,4004.00
2018-08-20T11:16:20.551Z,3884.00
2018-08-20T11:17:20.544Z,3976.00
2018-08-20T11:18:20.642Z,3884.00
2018-08-20T11:19:20.518Z,4032.00
2018-08-20T11:20:20.507Z,4172.00
2018-08-20T11:21:20.498Z,3952.00
2018-08-20T11:22:20.487Z,3916.00
2018-08-20T11:23:20.521Z,3672.00
2018-08-20T11:24:20.464Z,3612.00
2018-08-20T11:25:20.454Z,3700.00
2018-08-20T11:26:20.440Z,3728.00
2018-08-20T11:27:20.429Z,3936.00
2018-08-20T11:28:20.465Z,4304.00
2018-08-20T11:29:20.412Z,5056.00
2018-08-20T11:30:20.461Z,5744.00
2018-08-20T11:31:20.387Z,5552.00
2018-08-20T11:32:20.376Z,5116.00
2018-08-20T11:33:20.411Z,5104.00
2018-08-20T11:34:20.368Z,4544.00
2018-08-20T11:35:20.345Z,4352.00
2018-08-20T11:36:20.330Z,3848.00
2018-08-20T11:37:20.319Z,4100.00
2018-08-20T11:38:20.359Z,3576.00
2018-08-20T11:39:20.304Z,3016.00
2018-08-20T11:40:20.289Z,2936.00
2018-08-20T11:41:20.293Z,3068.00
2018-08-20T11:42:20.263Z,3300.00
2018-08-20T11:43:20.394Z,3772.00
2018-08-20T11:44:20.248Z,4044.00
2018-08-20T11:45:20.239Z,3952.00
2018-08-20T11:46:20.230Z,3272.00
2018-08-20T11:47:20.245Z,3256.00
2018-08-20T11:48:20.248Z,3284.00
2018-08-20T11:49:20.219Z,3260.00
2018-08-20T11:50:20.180Z,3116.00
2018-08-20T11:51:20.173Z,2900.00
2018-08-20T11:52:20.156Z,2712.00
2018-08-20T11:53:20.189Z,2948.00
2018-08-20T11:54:20.137Z,3488.00
2018-08-20T11:55:20.124Z,4148.00
2018-08-20T11:56:20.109Z,4868.00
2018-08-20T11:57:20.098Z,4560.00
2018-08-20T11:58:20.132Z,4168.00
2018-08-20T11:59:20.077Z,4160.00
2018-08-20T12:00:20.065Z,4036.00
2018-08-20T12:01:20.056Z,4152.00
2018-08-20T12:02:20.043Z,3856.00
2018-08-20T12:03:20.078Z,3808.00
2018-08-20T12:04:20.028Z,3172.00
2018-08-20T12:05:20.011Z,2640.00
2018-08-20T12:06:19.997Z,2552.00
2018-08-20T12:07:20.016Z,2264.00
2018-08-20T12:08:19.976Z,1964.00
2018-08-20T12:09:20.015Z,1964.00
2018-08-20T12:10:19.957Z,1724.00
2018-08-20T12:11:19.942Z,1636.00
2018-08-20T12:12:19.933Z,1800.00
2018-08-20T12:13:19.920Z,1756.00
2018-08-20T12:14:19.960Z,1888.00
2018-08-20T12:15:19.900Z,1920.00
2018-08-20T12:16:19.915Z,1976.00
2018-08-20T12:17:19.960Z,2068.00
2018-08-20T12:18:19.869Z,2408.00
2018-08-20T12:19:19.898Z,2692.00
2018-08-20T12:20:19.844Z,3084.00
2018-08-20T12:21:19.834Z,3552.00
2018-08-20T12:22:19.852Z,4204.00
2018-08-20T12:23:19.909Z,4212.00
2018-08-20T12:24:19.888Z,4584.00
2018-08-20T12:25:19.788Z,4620.00
2018-08-20T12:26:19.776Z,4736.00
2018-08-20T12:27:19.771Z,5020.00
2018-08-20T12:28:19.842Z,5776.00
2018-08-20T12:29:19.833Z,5584.00
2018-08-20T12:30:19.737Z,5584.00
2018-08-20T12:31:19.727Z,5796.00
2018-08-20T12:32:19.714Z,5316.00
2018-08-20T12:33:19.700Z,5636.00
2018-08-20T12:34:19.761Z,5700.00
2018-08-20T12:35:19.681Z,95584.00
2018-08-20T12:36:19.669Z,43776.00
2018-08-20T12:37:19.656Z,87232.00
2018-08-20T12:38:19.643Z,75904.00
2018-08-20T12:39:19.684Z,53888.00
2018-08-20T12:40:19.721Z,67264.00
2018-08-20T12:41:19.611Z,51520.00
2018-08-20T12:42:19.605Z,11960.00
2018-08-20T12:43:19.592Z,8764.00
2018-08-20T12:44:19.628Z,8064.00
2018-08-20T12:45:19.572Z,9548.00
2018-08-20T12:46:19.556Z,7656.00
2018-08-20T12:47:19.546Z,8236.00
2018-08-20T12:48:19.535Z,7996.00
2018-08-20T12:49:19.579Z,6604.00
2018-08-20T12:50:19.516Z,6228.00
2018-08-20T12:51:19.502Z,7808.00
2018-08-20T12:52:19.494Z,8948.00
2018-08-20T12:53:19.483Z,7592.00
2018-08-20T12:54:19.516Z,8136.00
2018-08-20T12:55:19.461Z,7780.00
2018-08-20T12:56:19.447Z,7984.00
2018-08-20T12:57:19.436Z,7748.00
2018-08-20T12:58:19.428Z,8532.00
2018-08-20T12:59:19.461Z,8228.00
2018-08-20T13:00:19.403Z,7884.00
2018-08-20T13:01:19.393Z,6920.00
2018-08-20T13:02:19.383Z,6764.00
2018-08-20T13:03:19.369Z,6020.00
2018-08-20T13:04:19.420Z,5332.00
2018-08-20T13:05:19.351Z,5928.00
2018-08-20T13:06:19.338Z,6176.00
2018-08-20T13:07:19.327Z,5896.00
2018-08-20T13:08:19.315Z,5928.00
2018-08-20T13:09:19.355Z,5876.00
2018-08-20T13:10:19.295Z,5684.00
2018-08-20T13:11:19.283Z,5808.00
2018-08-20T13:12:19.273Z,5604.00
2018-08-20T13:13:19.259Z,5412.00
2018-08-20T13:14:19.296Z,4260.00
2018-08-20T13:15:19.241Z,3076.00
2018-08-20T13:16:19.296Z,2088.00
2018-08-20T13:17:19.219Z,1784.00
2018-08-20T13:18:19.209Z,1868.00
2018-08-20T13:19:19.240Z,1880.00
2018-08-20T13:20:19.190Z,2156.00
2018-08-20T13:21:19.176Z,2608.00
2018-08-20T13:22:19.162Z,3056.00
2018-08-20T13:23:19.156Z,3016.00
2018-08-20T13:24:19.198Z,3148.00
2018-08-20T13:25:19.130Z,3128.00
2018-08-20T13:26:19.119Z,3120.00